Servinor Uno — EA8943 — position and weather

sailwx.info

Track history (hours):
 
Tides and Currents Weather Stations Pressure Air Temp Water Temp Dewpoint Dewpoint Depression Visibility Wind Speed Wind Dir Waves Ship Positions

Servinor Uno

Last reported at 2017-Dec-11 15:18 UTC. Time now 2017-Dec-13 15:04 UTC.
Position N 43°20' W 003°02'.

; draft 2.2 m.

Type: Other ship. MMSI: 224265930.

Date/timePositionNaut miles runAvg speedWind from/ knotsBaromVisibWave heightAir tempDewpointWater temp
2017-Dec-11 15:18N 43°20' W 003°02'0 0.3
2017-Dec-11 15:00N 43°20' W 003°02'0 0.0
2017-Dec-11 14:30N 43°20' W 003°02'0 0.0
2017-Dec-11 14:00N 43°20' W 003°02'0 0.0
2017-Dec-11 13:30N 43°20' W 003°02'0 0.0
2017-Dec-11 13:01N 43°20' W 003°02'0 0.0
2017-Dec-11 12:30N 43°20' W 003°02'0 0.0
2017-Dec-11 12:00N 43°20' W 003°02'0 0.0
2017-Dec-11 11:30N 43°20' W 003°02'0 0.0
2017-Dec-11 11:00N 43°20' W 003°02'0 0.0
2017-Dec-11 10:30N 43°20' W 003°02'0 0.0
2017-Dec-11 10:00N 43°20' W 003°02'0 0.0
2017-Dec-11 09:31N 43°20' W 003°02'0 0.0
2017-Dec-11 09:00N 43°20' W 003°02'0 0.0
2017-Dec-10 14:14N 43°20' W 003°02'0 0.0
2017-Dec-10 14:00N 43°20' W 003°02'0 0.0
2017-Dec-10 13:30N 43°20' W 003°02'0 0.0
2017-Dec-10 13:00N 43°20' W 003°02'0 0.0
2017-Dec-10 12:30N 43°20' W 003°02'0 0.0
2017-Dec-10 12:00N 43°20' W 003°02'1 1.6
2017-Dec-10 11:30N 43°21' W 003°02'1 2.9
2017-Dec-10 11:00N 43°21' W 003°03'0 0.0
2017-Dec-10 10:30N 43°21' W 003°03'0 0.0
2017-Dec-10 10:00N 43°21' W 003°03'0 0.0
2017-Dec-10 09:30N 43°21' W 003°03'0 0.0
2017-Dec-10 09:00N 43°21' W 003°03'0 0.0
2017-Dec-10 08:30N 43°21' W 003°03'0 0.0
2017-Dec-10 08:00N 43°21' W 003°03'1 2.8
2017-Dec-10 07:30N 43°21' W 003°02'1 0.6
2017-Dec-10 05:44N 43°20' W 003°02'1 5.1
2017-Dec-10 05:31N 43°21' W 003°02'3 6.0
2017-Dec-10 05:01N 43°22' W 003°06'0 0.0
2017-Dec-10 04:31N 43°22' W 003°06'0 0.0
2017-Dec-10 04:01N 43°22' W 003°06'0 0.0
2017-Dec-10 03:31N 43°22' W 003°06'0 0.0
2017-Dec-10 03:01N 43°22' W 003°06'0 0.0
2017-Dec-10 02:30N 43°22' W 003°06'0 0.0
2017-Dec-10 02:01N 43°22' W 003°06'0 0.4
2017-Dec-10 01:30N 43°22' W 003°06'1 2.9
2017-Dec-10 01:01N 43°22' W 003°04'2 4.8
2017-Dec-10 00:31N 43°20' W 003°02'0 0.0
2017-Dec-10 00:00N 43°20' W 003°02'0 0.0
2017-Dec-09 16:05N 43°20' W 003°02'0 0.2
2017-Dec-09 16:00N 43°20' W 003°02'1 1.2
2017-Dec-09 15:30N 43°20' W 003°02'0 0.0
2017-Dec-09 15:00N 43°20' W 003°02'1 1.1
2017-Dec-09 14:30N 43°20' W 003°02'0 0.0
2017-Dec-09 14:00N 43°20' W 003°02'0 0.0
2017-Dec-09 13:30N 43°20' W 003°02'0 0.0
2017-Dec-09 13:00N 43°20' W 003°02'0 0.0
2017-Dec-09 12:30N 43°20' W 003°02'0 0.0
2017-Dec-09 12:00N 43°20' W 003°02'0 0.0
2017-Dec-09 11:30N 43°20' W 003°02'0 0.0
2017-Dec-09 11:00N 43°20' W 003°02'0 0.0
2017-Dec-09 10:30N 43°20' W 003°02'0 0.7
2017-Dec-09 10:00N 43°20' W 003°02'0 0.0
2017-Dec-09 09:30N 43°20' W 003°02'0 0.0
2017-Dec-09 09:00N 43°20' W 003°02'0 0.0
2017-Dec-09 08:30N 43°20' W 003°02'0 0.0
2017-Dec-09 08:00N 43°20' W 003°02'0 0.8
2017-Dec-09 07:30N 43°20' W 003°02'0 0.0
2017-Dec-08 18:41N 43°20' W 003°02'0 0.6
2017-Dec-08 18:30N 43°20' W 003°02'0 0.0
2017-Dec-08 18:00N 43°20' W 003°02'0 0.0
2017-Dec-08 17:30N 43°20' W 003°02'0 0.0
2017-Dec-08 17:00N 43°20' W 003°02'0 0.0
2017-Dec-08 16:30N 43°20' W 003°02'0 0.0
2017-Dec-08 16:00N 43°20' W 003°02'0 0.0
2017-Dec-08 15:30N 43°20' W 003°02'0 0.0
2017-Dec-08 15:00N 43°20' W 003°02'0 0.0
2017-Dec-08 14:30N 43°20' W 003°02'0 0.0
2017-Dec-08 14:00N 43°20' W 003°02'0 0.0
2017-Dec-08 13:30N 43°20' W 003°02'0 0.0
2017-Dec-08 13:00N 43°20' W 003°02'0 0.0
2017-Dec-08 12:30N 43°20' W 003°02'0 0.0
2017-Dec-08 12:00N 43°20' W 003°02'1 1.4
2017-Dec-08 11:30N 43°20' W 003°02'0 0.0
2017-Dec-08 11:00N 43°20' W 003°02'0 0.0
2017-Dec-08 10:30N 43°20' W 003°02'0 0.0
2017-Dec-08 10:00N 43°20' W 003°02'0 0.0
2017-Dec-08 09:30N 43°20' W 003°02'1 1.3
2017-Dec-08 09:00N 43°21' W 003°02'1 1.1
2017-Dec-08 08:30N 43°21' W 003°03'0 0.0
2017-Dec-08 08:00N 43°21' W 003°03'1 1.5
2017-Dec-08 07:30N 43°21' W 003°02'1 0.1
2017-Dec-08 01:38N 43°20' W 003°02'0 0.6
2017-Dec-08 01:30N 43°20' W 003°02'2 4.3
2017-Dec-08 01:00N 43°22' W 003°03'2 3.0
2017-Dec-08 00:30N 43°22' W 003°05'0 0.0
2017-Dec-08 00:00N 43°22' W 003°05'0 0.0
2017-Dec-07 23:30N 43°22' W 003°05'0 0.0
2017-Dec-07 23:00N 43°22' W 003°05'0 0.0
2017-Dec-07 22:30N 43°22' W 003°05'0 0.0
2017-Dec-07 22:00N 43°22' W 003°05'0 0.0
2017-Dec-07 21:30N 43°22' W 003°05'2 3.3
2017-Dec-07 21:00N 43°22' W 003°03'1 2.0
2017-Dec-07 20:30N 43°21' W 003°03'0 0.0
2017-Dec-07 20:00N 43°21' W 003°03'0 0.0
2017-Dec-07 19:30N 43°21' W 003°03'0 0.0
2017-Dec-07 19:00N 43°21' W 003°03'0 0.0
2017-Dec-07 18:30N 43°21' W 003°03'1 0.1
2017-Dec-07 07:35N 43°20' W 003°02'0 2.6
2017-Dec-07 07:30N 43°20' W 003°02'3 5.7
2017-Dec-07 07:00N 43°22' W 003°04'1 2.6
2017-Dec-07 06:31N 43°22' W 003°06'0 0.0
2017-Dec-07 06:00N 43°22' W 003°06'0 0.0
2017-Dec-07 05:31N 43°22' W 003°06'0 0.0
2017-Dec-07 05:01N 43°22' W 003°06'0 0.0
2017-Dec-07 04:30N 43°22' W 003°06'0 0.0
2017-Dec-07 04:01N 43°22' W 003°06'0 0.0
2017-Dec-07 03:30N 43°22' W 003°06'0 0.0
2017-Dec-07 03:01N 43°22' W 003°06'2 4.8
2017-Dec-07 02:30N 43°22' W 003°03'2 3.8
2017-Dec-07 02:00N 43°20' W 003°02'0 0.0
2017-Dec-07 01:31N 43°20' W 003°02'0 0.0
2017-Dec-07 01:00N 43°20' W 003°02'  
2017-Dec-03 00:57N 43°20' W 003°02'2 4.9
2017-Dec-03 00:30N 43°22' W 003°03'2 4.3
2017-Dec-03 00:00N 43°22' W 003°06'0 0.0
2017-Dec-02 23:30N 43°22' W 003°06'0 0.0
2017-Dec-02 23:00N 43°22' W 003°06'0 0.0
2017-Dec-02 22:31N 43°22' W 003°06'0 0.0
2017-Dec-02 22:00N 43°22' W 003°06'0 1.0
2017-Dec-02 21:30N 43°22' W 003°06'0 0.0
2017-Dec-02 21:00N 43°22' W 003°06'0 0.0
2017-Dec-02 20:30N 43°22' W 003°06'0 0.0
2017-Dec-02 20:00N 43°22' W 003°06'0 0.0
2017-Dec-02 19:31N 43°22' W 003°06'0 0.0
2017-Dec-02 19:01N 43°22' W 003°06'0 0.0
2017-Dec-02 18:30N 43°22' W 003°06'0 0.0
2017-Dec-02 18:01N 43°22' W 003°06'1 1.0
2017-Dec-02 17:30N 43°22' W 003°06'0 0.9
2017-Dec-02 17:00N 43°22' W 003°06'0 0.0
2017-Dec-02 16:30N 43°22' W 003°06'0 0.8
2017-Dec-02 16:00N 43°22' W 003°06'0 0.1
2017-Dec-02 15:30N 43°22' W 003°06'0 0.0
2017-Dec-02 15:00N 43°22' W 003°06'0 0.0
2017-Dec-02 14:30N 43°22' W 003°06'0 0.0
2017-Dec-02 14:00N 43°22' W 003°06'2 3.8
2017-Dec-02 13:30N 43°22' W 003°04'2 3.4
2017-Dec-02 13:00N 43°21' W 003°02'0 0.0
2017-Dec-02 12:31N 43°21' W 003°02'0 0.0
2017-Dec-02 12:00N 43°21' W 003°02'0 0.0
2017-Dec-02 11:30N 43°21' W 003°02'0 0.0
2017-Dec-02 11:00N 43°21' W 003°02'0 0.0
2017-Dec-02 10:30N 43°21' W 003°02'0 0.0
2017-Dec-02 10:00N 43°21' W 003°02'0 0.0
2017-Dec-02 09:30N 43°21' W 003°02'1 1.3
2017-Dec-02 09:00N 43°20' W 003°02'0 0.0
2017-Dec-02 08:30N 43°20' W 003°02'0 0.0
2017-Dec-02 08:00N 43°20' W 003°02'0 0.2
2017-Dec-02 07:30N 43°20' W 003°02'0 0.0
2017-Dec-02 00:49N 43°20' W 003°02'0 0.4
2017-Dec-02 00:30N 43°20' W 003°02'0 0.0
2017-Dec-02 00:00N 43°20' W 003°02'0 0.0
2017-Dec-01 23:30N 43°20' W 003°02'1 2.6
2017-Dec-01 23:00N 43°21' W 003°02'3 5.6
2017-Dec-01 22:30N 43°22' W 003°06'0 0.0
2017-Dec-01 22:00N 43°22' W 003°06'0 0.1
2017-Dec-01 21:30N 43°22' W 003°06'0 0.1
2017-Dec-01 21:00N 43°22' W 003°06'0 0.4
2017-Dec-01 20:30N 43°22' W 003°06'1 1.2
2017-Dec-01 20:00N 43°22' W 003°05'3 5.3
2017-Dec-01 19:30N 43°21' W 003°02'  
Track history (hours):
 
Tides and Currents Weather Stations Pressure Air Temp Water Temp Dewpoint Dewpoint Depression Visibility Wind Speed Wind Dir Waves Ship Positions

Servinor Uno

Last reported at 2017-Dec-11 15:18 UTC. Time now 2017-Dec-13 15:04 UTC.
Position N 43°20' W 003°02'.

; draft 2.2 m.

Type: Other ship. MMSI: 224265930.

Date/timePositionNaut miles runAvg speedWind from/ knotsBaromVisibWave heightAir tempDewpointWater temp
2017-Dec-11 15:18N 43°20' W 003°02'0 0.3
2017-Dec-11 15:00N 43°20' W 003°02'0 0.0
2017-Dec-11 14:30N 43°20' W 003°02'0 0.0
2017-Dec-11 14:00N 43°20' W 003°02'0 0.0
2017-Dec-11 13:30N 43°20' W 003°02'0 0.0
2017-Dec-11 13:01N 43°20' W 003°02'0 0.0
2017-Dec-11 12:30N 43°20' W 003°02'0 0.0
2017-Dec-11 12:00N 43°20' W 003°02'0 0.0
2017-Dec-11 11:30N 43°20' W 003°02'0 0.0
2017-Dec-11 11:00N 43°20' W 003°02'0 0.0
2017-Dec-11 10:30N 43°20' W 003°02'0 0.0
2017-Dec-11 10:00N 43°20' W 003°02'0 0.0
2017-Dec-11 09:31N 43°20' W 003°02'0 0.0
2017-Dec-11 09:00N 43°20' W 003°02'0 0.0
2017-Dec-10 14:14N 43°20' W 003°02'0 0.0
2017-Dec-10 14:00N 43°20' W 003°02'0 0.0
2017-Dec-10 13:30N 43°20' W 003°02'0 0.0
2017-Dec-10 13:00N 43°20' W 003°02'0 0.0
2017-Dec-10 12:30N 43°20' W 003°02'0 0.0
2017-Dec-10 12:00N 43°20' W 003°02'1 1.6
2017-Dec-10 11:30N 43°21' W 003°02'1 2.9
2017-Dec-10 11:00N 43°21' W 003°03'0 0.0
2017-Dec-10 10:30N 43°21' W 003°03'0 0.0
2017-Dec-10 10:00N 43°21' W 003°03'0 0.0
2017-Dec-10 09:30N 43°21' W 003°03'0 0.0
2017-Dec-10 09:00N 43°21' W 003°03'0 0.0
2017-Dec-10 08:30N 43°21' W 003°03'0 0.0
2017-Dec-10 08:00N 43°21' W 003°03'1 2.8
2017-Dec-10 07:30N 43°21' W 003°02'1 0.6
2017-Dec-10 05:44N 43°20' W 003°02'1 5.1
2017-Dec-10 05:31N 43°21' W 003°02'3 6.0
2017-Dec-10 05:01N 43°22' W 003°06'0 0.0
2017-Dec-10 04:31N 43°22' W 003°06'0 0.0
2017-Dec-10 04:01N 43°22' W 003°06'0 0.0
2017-Dec-10 03:31N 43°22' W 003°06'0 0.0
2017-Dec-10 03:01N 43°22' W 003°06'0 0.0
2017-Dec-10 02:30N 43°22' W 003°06'0 0.0
2017-Dec-10 02:01N 43°22' W 003°06'0 0.4
2017-Dec-10 01:30N 43°22' W 003°06'1 2.9
2017-Dec-10 01:01N 43°22' W 003°04'2 4.8
2017-Dec-10 00:31N 43°20' W 003°02'0 0.0
2017-Dec-10 00:00N 43°20' W 003°02'0 0.0
2017-Dec-09 16:05N 43°20' W 003°02'0 0.2
2017-Dec-09 16:00N 43°20' W 003°02'1 1.2
2017-Dec-09 15:30N 43°20' W 003°02'0 0.0
2017-Dec-09 15:00N 43°20' W 003°02'1 1.1
2017-Dec-09 14:30N 43°20' W 003°02'0 0.0
2017-Dec-09 14:00N 43°20' W 003°02'0 0.0
2017-Dec-09 13:30N 43°20' W 003°02'0 0.0
2017-Dec-09 13:00N 43°20' W 003°02'0 0.0
2017-Dec-09 12:30N 43°20' W 003°02'0 0.0
2017-Dec-09 12:00N 43°20' W 003°02'0 0.0
2017-Dec-09 11:30N 43°20' W 003°02'0 0.0
2017-Dec-09 11:00N 43°20' W 003°02'0 0.0
2017-Dec-09 10:30N 43°20' W 003°02'0 0.7
2017-Dec-09 10:00N 43°20' W 003°02'0 0.0
2017-Dec-09 09:30N 43°20' W 003°02'0 0.0
2017-Dec-09 09:00N 43°20' W 003°02'0 0.0
2017-Dec-09 08:30N 43°20' W 003°02'0 0.0
2017-Dec-09 08:00N 43°20' W 003°02'0 0.8
2017-Dec-09 07:30N 43°20' W 003°02'0 0.0
2017-Dec-08 18:41N 43°20' W 003°02'0 0.6
2017-Dec-08 18:30N 43°20' W 003°02'0 0.0
2017-Dec-08 18:00N 43°20' W 003°02'0 0.0
2017-Dec-08 17:30N 43°20' W 003°02'0 0.0
2017-Dec-08 17:00N 43°20' W 003°02'0 0.0
2017-Dec-08 16:30N 43°20' W 003°02'0 0.0
2017-Dec-08 16:00N 43°20' W 003°02'0 0.0
2017-Dec-08 15:30N 43°20' W 003°02'0 0.0
2017-Dec-08 15:00N 43°20' W 003°02'0 0.0
2017-Dec-08 14:30N 43°20' W 003°02'0 0.0
2017-Dec-08 14:00N 43°20' W 003°02'0 0.0
2017-Dec-08 13:30N 43°20' W 003°02'0 0.0
2017-Dec-08 13:00N 43°20' W 003°02'0 0.0
2017-Dec-08 12:30N 43°20' W 003°02'0 0.0
2017-Dec-08 12:00N 43°20' W 003°02'1 1.4
2017-Dec-08 11:30N 43°20' W 003°02'0 0.0
2017-Dec-08 11:00N 43°20' W 003°02'0 0.0
2017-Dec-08 10:30N 43°20' W 003°02'0 0.0
2017-Dec-08 10:00N 43°20' W 003°02'0 0.0
2017-Dec-08 09:30N 43°20' W 003°02'1 1.3
2017-Dec-08 09:00N 43°21' W 003°02'1 1.1
2017-Dec-08 08:30N 43°21' W 003°03'0 0.0
2017-Dec-08 08:00N 43°21' W 003°03'1 1.5
2017-Dec-08 07:30N 43°21' W 003°02'1 0.1
2017-Dec-08 01:38N 43°20' W 003°02'0 0.6
2017-Dec-08 01:30N 43°20' W 003°02'2 4.3
2017-Dec-08 01:00N 43°22' W 003°03'2 3.0
2017-Dec-08 00:30N 43°22' W 003°05'0 0.0
2017-Dec-08 00:00N 43°22' W 003°05'0 0.0
2017-Dec-07 23:30N 43°22' W 003°05'0 0.0
2017-Dec-07 23:00N 43°22' W 003°05'0 0.0
2017-Dec-07 22:30N 43°22' W 003°05'0 0.0
2017-Dec-07 22:00N 43°22' W 003°05'0 0.0
2017-Dec-07 21:30N 43°22' W 003°05'2 3.3
2017-Dec-07 21:00N 43°22' W 003°03'1 2.0
2017-Dec-07 20:30N 43°21' W 003°03'0 0.0
2017-Dec-07 20:00N 43°21' W 003°03'0 0.0
2017-Dec-07 19:30N 43°21' W 003°03'0 0.0
2017-Dec-07 19:00N 43°21' W 003°03'0 0.0
2017-Dec-07 18:30N 43°21' W 003°03'1 0.1
2017-Dec-07 07:35N 43°20' W 003°02'0 2.6
2017-Dec-07 07:30N 43°20' W 003°02'3 5.7
2017-Dec-07 07:00N 43°22' W 003°04'1 2.6
2017-Dec-07 06:31N 43°22' W 003°06'0 0.0
2017-Dec-07 06:00N 43°22' W 003°06'0 0.0
2017-Dec-07 05:31N 43°22' W 003°06'0 0.0
2017-Dec-07 05:01N 43°22' W 003°06'0 0.0
2017-Dec-07 04:30N 43°22' W 003°06'0 0.0
2017-Dec-07 04:01N 43°22' W 003°06'0 0.0
2017-Dec-07 03:30N 43°22' W 003°06'0 0.0
2017-Dec-07 03:01N 43°22' W 003°06'2 4.8
2017-Dec-07 02:30N 43°22' W 003°03'2 3.8
2017-Dec-07 02:00N 43°20' W 003°02'0 0.0
2017-Dec-07 01:31N 43°20' W 003°02'0 0.0
2017-Dec-07 01:00N 43°20' W 003°02'  
2017-Dec-03 00:57N 43°20' W 003°02'2 4.9
2017-Dec-03 00:30N 43°22' W 003°03'2 4.3
2017-Dec-03 00:00N 43°22' W 003°06'0 0.0
2017-Dec-02 23:30N 43°22' W 003°06'0 0.0
2017-Dec-02 23:00N 43°22' W 003°06'0 0.0
2017-Dec-02 22:31N 43°22' W 003°06'0 0.0
2017-Dec-02 22:00N 43°22' W 003°06'0 1.0
2017-Dec-02 21:30N 43°22' W 003°06'0 0.0
2017-Dec-02 21:00N 43°22' W 003°06'0 0.0
2017-Dec-02 20:30N 43°22' W 003°06'0 0.0
2017-Dec-02 20:00N 43°22' W 003°06'0 0.0
2017-Dec-02 19:31N 43°22' W 003°06'0 0.0
2017-Dec-02 19:01N 43°22' W 003°06'0 0.0
2017-Dec-02 18:30N 43°22' W 003°06'0 0.0
2017-Dec-02 18:01N 43°22' W 003°06'1 1.0
2017-Dec-02 17:30N 43°22' W 003°06'0 0.9
2017-Dec-02 17:00N 43°22' W 003°06'0 0.0
2017-Dec-02 16:30N 43°22' W 003°06'0 0.8
2017-Dec-02 16:00N 43°22' W 003°06'0 0.1
2017-Dec-02 15:30N 43°22' W 003°06'0 0.0
2017-Dec-02 15:00N 43°22' W 003°06'0 0.0
2017-Dec-02 14:30N 43°22' W 003°06'0 0.0
2017-Dec-02 14:00N 43°22' W 003°06'2 3.8
2017-Dec-02 13:30N 43°22' W 003°04'2 3.4
2017-Dec-02 13:00N 43°21' W 003°02'0 0.0
2017-Dec-02 12:31N 43°21' W 003°02'0 0.0
2017-Dec-02 12:00N 43°21' W 003°02'0 0.0
2017-Dec-02 11:30N 43°21' W 003°02'0 0.0
2017-Dec-02 11:00N 43°21' W 003°02'0 0.0
2017-Dec-02 10:30N 43°21' W 003°02'0 0.0
2017-Dec-02 10:00N 43°21' W 003°02'0 0.0
2017-Dec-02 09:30N 43°21' W 003°02'1 1.3
2017-Dec-02 09:00N 43°20' W 003°02'0 0.0
2017-Dec-02 08:30N 43°20' W 003°02'0 0.0
2017-Dec-02 08:00N 43°20' W 003°02'0 0.2
2017-Dec-02 07:30N 43°20' W 003°02'0 0.0
2017-Dec-02 00:49N 43°20' W 003°02'0 0.4
2017-Dec-02 00:30N 43°20' W 003°02'0 0.0
2017-Dec-02 00:00N 43°20' W 003°02'0 0.0
2017-Dec-01 23:30N 43°20' W 003°02'1 2.6
2017-Dec-01 23:00N 43°21' W 003°02'3 5.6
2017-Dec-01 22:30N 43°22' W 003°06'0 0.0
2017-Dec-01 22:00N 43°22' W 003°06'0 0.1
2017-Dec-01 21:30N 43°22' W 003°06'0 0.1
2017-Dec-01 21:00N 43°22' W 003°06'0 0.4
2017-Dec-01 20:30N 43°22' W 003°06'1 1.2
2017-Dec-01 20:00N 43°22' W 003°05'3 5.3
2017-Dec-01 19:30N 43°21' W 003°02'  

Dump ship's entire track history